createdAt,value
2016-12-31T00:00:32.640Z,0
2016-12-31T00:01:43.386Z,0
2016-12-31T00:02:53.332Z,0
2016-12-31T00:04:03.673Z,0
2016-12-31T00:05:14.411Z,0
2016-12-31T00:06:24.772Z,0
2016-12-31T00:07:35.108Z,0
2016-12-31T00:08:45.864Z,0
2016-12-31T00:09:56.597Z,0
2016-12-31T00:11:07.361Z,0
2016-12-31T00:12:17.700Z,0
2016-12-31T00:13:27.654Z,0
2016-12-31T00:14:38.065Z,0
2016-12-31T00:15:48.020Z,0
2016-12-31T00:16:58.748Z,0
2016-12-31T00:18:09.341Z,0
2016-12-31T00:19:20.091Z,0
2016-12-31T00:20:30.438Z,0
2016-12-31T00:21:40.794Z,0
2016-12-31T00:22:50.767Z,0
2016-12-31T00:24:01.532Z,0
2016-12-31T00:25:11.880Z,0
2016-12-31T00:26:21.832Z,0
2016-12-31T00:27:32.174Z,0
2016-12-31T00:28:42.129Z,0
2016-12-31T00:29:52.477Z,0
2016-12-31T00:31:02.825Z,0
2016-12-31T00:32:13.552Z,0
2016-12-31T00:33:23.892Z,0
2016-12-31T00:34:33.829Z,0
2016-12-31T00:35:44.591Z,0
2016-12-31T00:36:54.961Z,0
2016-12-31T00:38:05.323Z,0
2016-12-31T00:39:16.064Z,0
2016-12-31T00:40:26.416Z,0
2016-12-31T00:41:37.168Z,0
2016-12-31T00:42:47.498Z,0
2016-12-31T00:43:57.857Z,0
2016-12-31T00:45:08.600Z,0
2016-12-31T00:46:19.336Z,0
2016-12-31T00:47:29.682Z,0
2016-12-31T00:48:40.028Z,0
2016-12-31T00:49:50.385Z,0
2016-12-31T00:51:01.129Z,0
2016-12-31T00:52:11.854Z,0
2016-12-31T00:53:22.201Z,0
2016-12-31T00:54:32.953Z,0
2016-12-31T00:55:42.120Z,0
2016-12-31T00:56:52.092Z,0
2016-12-31T00:58:02.823Z,0
2016-12-31T00:59:13.179Z,0
2016-12-31T01:00:23.937Z,0
2016-12-31T01:01:34.319Z,0
2016-12-31T01:02:44.699Z,0
2016-12-31T01:03:55.447Z,0
2016-12-31T01:05:06.184Z,0
2016-12-31T01:06:16.925Z,0
2016-12-31T01:07:27.281Z,0
2016-12-31T01:08:38.017Z,0
2016-12-31T01:09:47.617Z,0
2016-12-31T01:10:57.968Z,0
2016-12-31T01:12:08.328Z,0
2016-12-31T01:13:19.075Z,0
2016-12-31T01:14:29.803Z,0
2016-12-31T01:15:39.759Z,0
2016-12-31T01:16:49.740Z,0
2016-12-31T01:18:00.483Z,0
2016-12-31T01:19:10.833Z,0
2016-12-31T01:20:21.601Z,0
2016-12-31T01:21:32.372Z,0
2016-12-31T01:22:43.121Z,0
2016-12-31T01:23:53.060Z,0
2016-12-31T01:25:03.388Z,0
2016-12-31T01:26:13.344Z,0
2016-12-31T01:27:24.106Z,0
2016-12-31T01:28:34.518Z,0
2016-12-31T01:29:45.256Z,0
2016-12-31T01:30:55.638Z,0
2016-12-31T01:32:06.004Z,0
2016-12-31T01:33:16.351Z,0
2016-12-31T01:34:27.082Z,0
2016-12-31T01:35:37.434Z,0
2016-12-31T01:36:48.174Z,0
2016-12-31T01:37:58.909Z,0
2016-12-31T01:39:09.648Z,0
2016-12-31T01:40:20.405Z,0
2016-12-31T01:41:30.776Z,0
2016-12-31T01:42:41.129Z,0
2016-12-31T01:43:51.850Z,0
2016-12-31T01:45:02.583Z,0
2016-12-31T01:46:12.943Z,0
2016-12-31T01:47:23.294Z,0
2016-12-31T01:48:34.042Z,0
2016-12-31T01:49:44.778Z,0
2016-12-31T01:50:55.521Z,0
2016-12-31T01:52:05.477Z,0
2016-12-31T01:53:15.814Z,0
2016-12-31T01:54:26.560Z,0
2016-12-31T01:55:36.933Z,0
2016-12-31T01:56:47.664Z,0
2016-12-31T01:57:57.226Z,0
2016-12-31T01:59:07.984Z,0
2016-12-31T02:00:18.714Z,0
2016-12-31T02:01:29.052Z,0
2016-12-31T02:02:38.995Z,0
2016-12-31T02:03:49.743Z,0
2016-12-31T02:05:00.479Z,0
2016-12-31T02:06:11.224Z,0
2016-12-31T02:07:21.959Z,0
2016-12-31T02:08:32.707Z,0
2016-12-31T02:09:43.428Z,0
2016-12-31T02:10:53.784Z,0
2016-12-31T02:12:04.127Z,0
2016-12-31T02:13:14.883Z,0
2016-12-31T02:14:25.240Z,0
2016-12-31T02:15:36.002Z,0
2016-12-31T02:16:46.349Z,0
2016-12-31T02:17:56.700Z,0
2016-12-31T02:19:07.431Z,0
2016-12-31T02:20:17.787Z,0
2016-12-31T02:21:28.522Z,0
2016-12-31T02:22:38.461Z,0
2016-12-31T02:23:48.808Z,0
2016-12-31T02:24:59.180Z,0
2016-12-31T02:26:09.529Z,0
2016-12-31T02:27:20.258Z,0
2016-12-31T02:28:31.029Z,0
2016-12-31T02:29:40.991Z,0
2016-12-31T02:30:51.343Z,0
2016-12-31T02:32:01.300Z,0
2016-12-31T02:33:12.046Z,0
2016-12-31T02:34:22.000Z,0
2016-12-31T02:35:32.731Z,0
2016-12-31T02:36:43.494Z,0
2016-12-31T02:37:53.838Z,0
2016-12-31T02:39:04.579Z,0
2016-12-31T02:40:14.913Z,0
2016-12-31T02:41:25.654Z,0
2016-12-31T02:42:35.990Z,0
2016-12-31T02:43:46.723Z,0
2016-12-31T02:44:57.079Z,0
2016-12-31T02:46:07.820Z,0
2016-12-31T02:47:17.753Z,0
2016-12-31T02:48:28.093Z,0
2016-12-31T02:49:37.648Z,0
2016-12-31T02:50:48.378Z,0
2016-12-31T02:51:59.109Z,0
2016-12-31T02:53:09.836Z,0
2016-12-31T02:54:20.582Z,0
2016-12-31T02:55:30.928Z,0
2016-12-31T02:56:41.682Z,0
2016-12-31T02:57:52.408Z,0
2016-12-31T02:59:02.764Z,0
2016-12-31T03:00:13.100Z,0
2016-12-31T03:01:23.446Z,0
2016-12-31T03:33:07.427Z,0
2016-12-31T03:34:17.760Z,0
2016-12-31T03:35:28.097Z,0
2016-12-31T03:36:38.434Z,0
2016-12-31T03:37:49.185Z,0
2016-12-31T03:38:59.547Z,0
2016-12-31T03:40:10.282Z,0
2016-12-31T03:41:20.630Z,0
2016-12-31T03:42:31.369Z,0
2016-12-31T03:43:40.523Z,0
2016-12-31T03:44:50.872Z,0
2016-12-31T03:46:01.218Z,0
2016-12-31T03:47:11.565Z,0
2016-12-31T03:48:21.946Z,0
2016-12-31T03:49:32.308Z,0
2016-12-31T03:50:42.662Z,0
2016-12-31T03:51:53.405Z,0
2016-12-31T03:53:04.152Z,0
2016-12-31T03:54:14.496Z,0
2016-12-31T03:55:24.844Z,0
2016-12-31T03:56:35.844Z,0
2016-12-31T03:57:46.179Z,0
2016-12-31T03:58:57.150Z,0
2016-12-31T04:00:07.876Z,0
2016-12-31T04:01:18.611Z,0
2016-12-31T04:02:28.963Z,0
2016-12-31T04:03:39.299Z,0
2016-12-31T04:04:49.635Z,0
2016-12-31T04:05:59.189Z,0
2016-12-31T04:07:09.945Z,0
2016-12-31T04:08:20.691Z,0
2016-12-31T04:09:31.437Z,0
2016-12-31T04:10:42.184Z,0
2016-12-31T04:11:52.951Z,0
2016-12-31T04:13:03.298Z,0
2016-12-31T04:14:13.646Z,0
2016-12-31T04:15:24.369Z,0
2016-12-31T04:16:35.128Z,0
2016-12-31T04:17:45.474Z,0
2016-12-31T04:18:55.807Z,0
2016-12-31T04:20:06.149Z,0
2016-12-31T04:21:16.521Z,0
2016-12-31T04:22:26.472Z,0
2016-12-31T04:23:37.239Z,0
2016-12-31T04:24:48.046Z,0
2016-12-31T04:25:57.595Z,0
2016-12-31T04:27:08.326Z,0
2016-12-31T04:28:18.677Z,0
2016-12-31T04:29:29.013Z,0
2016-12-31T04:30:39.788Z,0
2016-12-31T04:31:50.120Z,0
2016-12-31T04:33:00.857Z,0
2016-12-31T04:34:11.610Z,0
2016-12-31T04:35:21.955Z,0
2016-12-31T04:36:32.706Z,0
2016-12-31T04:37:43.438Z,0
2016-12-31T04:38:53.819Z,0
2016-12-31T04:40:04.557Z,0
2016-12-31T04:41:15.299Z,0
2016-12-31T04:42:25.637Z,0
2016-12-31T04:43:35.979Z,0
2016-12-31T04:44:46.318Z,0
2016-12-31T04:45:56.299Z,0
2016-12-31T04:47:07.031Z,0
2016-12-31T04:48:17.772Z,0
2016-12-31T04:49:28.121Z,0
2016-12-31T04:50:38.871Z,0
2016-12-31T04:51:49.607Z,0
2016-12-31T04:53:00.339Z,0
2016-12-31T04:54:10.695Z,0
2016-12-31T04:55:21.484Z,0
2016-12-31T04:56:31.804Z,0
2016-12-31T04:57:42.540Z,0
2016-12-31T04:58:53.282Z,0
2016-12-31T05:00:04.024Z,0
2016-12-31T05:01:14.372Z,0
2016-12-31T05:02:25.119Z,0
2016-12-31T05:03:35.464Z,0
2016-12-31T05:04:46.228Z,0
2016-12-31T05:05:56.979Z,0
2016-12-31T05:07:06.537Z,0
2016-12-31T05:08:16.876Z,0
2016-12-31T05:09:27.627Z,0
2016-12-31T05:10:38.385Z,0
2016-12-31T05:11:48.727Z,0
2016-12-31T05:12:59.469Z,0
2016-12-31T05:14:10.211Z,0
2016-12-31T05:15:20.945Z,0
2016-12-31T05:16:31.289Z,0
2016-12-31T05:17:41.641Z,0
2016-12-31T05:18:52.366Z,0
2016-12-31T05:20:02.712Z,0
2016-12-31T05:21:12.659Z,0
2016-12-31T05:22:23.006Z,0
2016-12-31T05:23:33.763Z,0
2016-12-31T05:24:43.727Z,0
2016-12-31T05:25:54.487Z,0
2016-12-31T05:27:04.820Z,0
2016-12-31T05:28:15.550Z,0
2016-12-31T05:29:25.512Z,0
2016-12-31T05:30:36.248Z,0
2016-12-31T05:31:46.999Z,0
2016-12-31T05:32:57.359Z,0
2016-12-31T05:34:07.713Z,0
2016-12-31T05:35:17.677Z,0
2016-12-31T05:36:28.041Z,0
2016-12-31T05:37:38.398Z,0
2016-12-31T05:38:48.336Z,0
2016-12-31T05:39:58.676Z,0
2016-12-31T05:41:09.422Z,0
2016-12-31T05:42:20.159Z,0
2016-12-31T05:43:30.113Z,0
2016-12-31T05:44:40.448Z,0
2016-12-31T05:45:51.180Z,0
2016-12-31T05:47:01.521Z,0
2016-12-31T05:48:11.856Z,0
2016-12-31T05:49:22.235Z,0
2016-12-31T05:50:33.009Z,0
2016-12-31T05:51:43.361Z,0
2016-12-31T05:52:53.698Z,0
2016-12-31T05:54:04.044Z,0
2016-12-31T05:55:13.988Z,0
2016-12-31T05:56:24.728Z,0
2016-12-31T05:57:35.078Z,0
2016-12-31T05:58:45.415Z,0
2016-12-31T05:59:55.813Z,0
2016-12-31T06:01:06.545Z,0
2016-12-31T06:02:16.880Z,0
2016-12-31T06:03:26.846Z,0
2016-12-31T06:04:37.575Z,0
2016-12-31T06:05:47.520Z,0
2016-12-31T06:06:58.251Z,0
2016-12-31T06:08:08.987Z,4
2016-12-31T06:09:19.735Z,4
2016-12-31T06:10:30.075Z,0
2016-12-31T06:11:40.037Z,0
2016-12-31T06:12:50.373Z,4
2016-12-31T06:14:01.136Z,4
2016-12-31T06:15:11.894Z,0
2016-12-31T06:16:22.685Z,4
2016-12-31T06:17:33.016Z,4
2016-12-31T06:18:42.971Z,8
2016-12-31T06:19:53.344Z,8
2016-12-31T06:21:03.720Z,8
2016-12-31T06:22:14.456Z,8
2016-12-31T06:23:25.184Z,12
2016-12-31T06:24:35.530Z,12
2016-12-31T06:25:46.271Z,16
2016-12-31T06:26:57.010Z,20
2016-12-31T06:28:07.780Z,24
2016-12-31T06:29:18.112Z,28
2016-12-31T06:30:28.839Z,32
2016-12-31T06:31:39.589Z,40
2016-12-31T06:32:50.006Z,48
2016-12-31T06:34:00.746Z,56
2016-12-31T06:35:11.090Z,64
2016-12-31T06:36:21.823Z,72
2016-12-31T06:37:32.168Z,84
2016-12-31T06:38:42.908Z,96
2016-12-31T06:39:53.253Z,112
2016-12-31T06:41:03.589Z,124
2016-12-31T06:42:14.326Z,140
2016-12-31T06:43:24.663Z,160
2016-12-31T06:44:34.614Z,180
2016-12-31T06:45:45.353Z,196
2016-12-31T06:46:56.088Z,220
2016-12-31T06:48:06.043Z,240
2016-12-31T06:49:16.810Z,260
2016-12-31T06:50:27.149Z,288
2016-12-31T06:51:37.104Z,312
2016-12-31T06:52:46.661Z,336
2016-12-31T06:53:56.613Z,364
2016-12-31T06:55:06.964Z,392
2016-12-31T06:56:17.300Z,420
2016-12-31T06:57:27.647Z,452
2016-12-31T06:58:37.600Z,484
2016-12-31T06:59:48.337Z,520
2016-12-31T07:00:58.679Z,556
2016-12-31T07:02:09.441Z,588
2016-12-31T07:03:20.180Z,632
2016-12-31T07:04:30.128Z,668
2016-12-31T07:05:40.066Z,708
2016-12-31T07:06:50.793Z,748
2016-12-31T07:08:01.144Z,792
2016-12-31T07:09:11.881Z,840
2016-12-31T07:10:22.628Z,888
2016-12-31T07:11:33.369Z,928
2016-12-31T07:12:44.121Z,980
2016-12-31T07:13:54.468Z,1020
2016-12-31T07:15:04.816Z,1072
2016-12-31T07:16:15.556Z,1120
2016-12-31T07:17:25.896Z,1164
2016-12-31T07:18:36.241Z,1216
2016-12-31T07:19:46.596Z,1264
2016-12-31T07:20:57.337Z,1316
2016-12-31T07:22:07.690Z,1364
2016-12-31T07:23:18.463Z,1412
2016-12-31T07:24:28.803Z,1464
2016-12-31T07:25:38.741Z,1512
2016-12-31T07:26:48.284Z,1556
2016-12-31T07:27:59.060Z,1604
2016-12-31T07:29:09.800Z,1656
2016-12-31T07:30:20.564Z,1704
2016-12-31T07:31:30.510Z,1756
2016-12-31T07:32:40.857Z,1808
2016-12-31T07:33:51.199Z,1884
2016-12-31T07:35:01.530Z,1932
2016-12-31T07:36:12.292Z,1940
2016-12-31T07:37:23.030Z,1964
2016-12-31T07:38:32.977Z,2004
2016-12-31T07:39:43.714Z,2048
2016-12-31T07:40:53.661Z,2084
2016-12-31T07:42:04.461Z,2136
2016-12-31T07:43:14.410Z,2180
2016-12-31T07:44:25.371Z,2228
2016-12-31T07:45:35.723Z,2268
2016-12-31T07:46:46.471Z,2308
2016-12-31T07:47:56.828Z,2348
2016-12-31T07:49:07.575Z,2388
2016-12-31T07:50:17.906Z,2424
2016-12-31T07:51:28.658Z,2468
2016-12-31T07:52:39.390Z,2504
2016-12-31T07:53:49.355Z,2540
2016-12-31T07:55:00.102Z,2576
2016-12-31T07:56:10.430Z,2620
2016-12-31T07:57:21.168Z,2660
2016-12-31T07:58:30.728Z,2700
2016-12-31T07:59:40.280Z,2728
2016-12-31T08:00:51.053Z,2764
2016-12-31T08:02:01.804Z,2800
2016-12-31T08:03:12.541Z,2832
2016-12-31T08:04:23.279Z,2868
2016-12-31T08:05:33.265Z,2904
2016-12-31T08:06:43.612Z,2944
2016-12-31T08:07:54.356Z,2976
2016-12-31T08:09:04.716Z,3012
2016-12-31T08:10:15.453Z,3048
2016-12-31T08:11:25.841Z,3072
2016-12-31T08:12:36.187Z,3104
2016-12-31T08:13:46.545Z,3136
2016-12-31T08:14:56.925Z,3180
2016-12-31T08:16:07.328Z,3212
2016-12-31T08:17:17.669Z,3252
2016-12-31T08:18:27.620Z,3284
2016-12-31T08:19:37.980Z,3316
2016-12-31T08:20:48.716Z,3348
2016-12-31T08:21:59.072Z,3380
2016-12-31T08:23:09.830Z,3412
2016-12-31T08:24:20.575Z,3436
2016-12-31T08:25:30.958Z,3476
2016-12-31T08:26:40.504Z,3500
2016-12-31T08:27:51.280Z,3536
2016-12-31T08:29:01.628Z,3568
2016-12-31T08:30:12.374Z,3600
2016-12-31T08:31:22.331Z,3624
2016-12-31T08:32:32.678Z,3644
2016-12-31T08:33:43.024Z,3692
2016-12-31T08:34:53.756Z,3708
2016-12-31T08:36:04.108Z,3752
2016-12-31T08:37:14.865Z,3788
2016-12-31T08:38:25.211Z,3824
2016-12-31T08:39:35.570Z,3872
2016-12-31T08:40:46.317Z,3908
2016-12-31T08:41:57.070Z,3908
2016-12-31T08:43:07.403Z,3964
2016-12-31T08:44:17.781Z,4004
2016-12-31T08:45:28.545Z,4020
2016-12-31T08:46:38.914Z,4064
2016-12-31T08:47:49.662Z,4072
2016-12-31T08:49:00.018Z,4084
2016-12-31T08:50:10.763Z,4124
2016-12-31T08:51:21.509Z,4136
2016-12-31T08:52:32.264Z,4164
2016-12-31T08:53:43.045Z,4180
2016-12-31T08:54:53.403Z,4256
2016-12-31T08:56:04.149Z,4296
2016-12-31T08:57:14.491Z,4312
2016-12-31T08:58:25.235Z,4308
2016-12-31T08:59:35.990Z,4340
2016-12-31T09:00:46.746Z,4412
2016-12-31T09:01:57.109Z,4432
2016-12-31T09:03:07.851Z,4424
2016-12-31T09:04:18.605Z,4452
2016-12-31T09:05:28.961Z,4476
2016-12-31T09:06:39.946Z,4528
2016-12-31T09:07:50.308Z,4556
2016-12-31T09:09:01.059Z,4604
2016-12-31T09:10:11.019Z,4644
2016-12-31T09:11:21.348Z,4692
2016-12-31T09:12:31.693Z,4720
2016-12-31T09:13:42.428Z,4748
2016-12-31T09:14:53.174Z,4788
2016-12-31T09:16:03.919Z,4824
2016-12-31T09:17:14.670Z,4860
2016-12-31T09:18:25.035Z,4892
2016-12-31T09:19:35.374Z,4916
2016-12-31T09:20:46.106Z,4952
2016-12-31T09:21:56.444Z,4996
2016-12-31T09:23:06.821Z,5028
2016-12-31T09:24:17.572Z,5100
2016-12-31T09:25:28.309Z,5132
2016-12-31T09:26:38.665Z,5148
2016-12-31T09:27:49.392Z,5188
2016-12-31T09:28:59.743Z,5232
2016-12-31T09:30:10.089Z,5260
2016-12-31T09:31:20.438Z,5296
2016-12-31T09:32:31.194Z,5316
2016-12-31T09:33:41.951Z,5364
2016-12-31T09:34:52.304Z,5388
2016-12-31T09:36:02.670Z,5384
2016-12-31T09:37:13.425Z,5428
2016-12-31T09:38:24.162Z,5460
2016-12-31T09:39:34.898Z,5512
2016-12-31T09:40:45.648Z,5552
2016-12-31T09:41:56.399Z,5592
2016-12-31T09:43:07.139Z,5628
2016-12-31T09:44:17.881Z,5656
2016-12-31T09:45:28.623Z,5720
2016-12-31T09:46:39.374Z,5764
2016-12-31T09:47:50.126Z,5804
2016-12-31T09:49:00.468Z,5820
2016-12-31T09:50:11.213Z,5856
2016-12-31T09:51:21.560Z,5864
2016-12-31T09:52:32.316Z,5888
2016-12-31T09:53:42.672Z,5928
2016-12-31T09:54:52.639Z,5928
2016-12-31T09:56:03.366Z,5980
2016-12-31T09:57:13.715Z,6016
2016-12-31T09:58:24.094Z,6012
2016-12-31T09:59:34.066Z,6016
2016-12-31T10:00:44.832Z,6044
2016-12-31T10:01:55.196Z,6048
2016-12-31T10:03:05.555Z,6056
2016-12-31T10:04:16.299Z,6056
2016-12-31T10:05:26.640Z,6056
2016-12-31T10:06:36.975Z,6028
2016-12-31T10:07:47.323Z,6032
2016-12-31T10:08:58.090Z,6016
2016-12-31T10:10:08.840Z,6056
2016-12-31T10:11:19.587Z,6100
2016-12-31T10:12:30.338Z,6112
2016-12-31T10:13:41.127Z,6120
2016-12-31T10:14:51.493Z,6148
2016-12-31T10:16:02.239Z,6176
2016-12-31T10:17:12.196Z,6176
2016-12-31T10:18:22.976Z,6204
2016-12-31T10:19:33.723Z,6228
2016-12-31T10:20:44.076Z,6272
2016-12-31T10:21:54.026Z,6292
2016-12-31T10:23:04.777Z,6296
2016-12-31T10:24:15.516Z,6316
2016-12-31T10:25:25.862Z,6332
2016-12-31T10:26:36.614Z,6368
2016-12-31T10:27:47.373Z,6388
2016-12-31T10:28:57.708Z,6392
2016-12-31T10:30:08.464Z,6396
2016-12-31T10:31:18.436Z,6392
2016-12-31T10:32:29.413Z,6404
2016-12-31T10:33:38.971Z,6404
2016-12-31T10:34:49.720Z,6408
2016-12-31T10:35:59.692Z,6412
2016-12-31T10:37:10.033Z,6404
2016-12-31T10:38:20.785Z,6400
2016-12-31T10:39:31.518Z,6400
2016-12-31T10:40:41.479Z,6408
2016-12-31T10:41:51.835Z,6392
2016-12-31T10:43:02.573Z,6400
2016-12-31T10:44:13.314Z,6424
2016-12-31T10:45:23.276Z,6436
2016-12-31T10:46:34.027Z,6456
2016-12-31T10:47:44.379Z,6472
2016-12-31T10:48:54.337Z,6484
2016-12-31T10:50:04.695Z,6488
2016-12-31T10:51:15.429Z,6500
2016-12-31T10:52:26.177Z,6500
2016-12-31T10:53:36.924Z,6516
2016-12-31T10:54:47.680Z,6540
2016-12-31T10:55:57.656Z,6564
2016-12-31T10:57:08.030Z,6564
2016-12-31T10:58:18.786Z,6580
2016-12-31T10:59:29.520Z,6608
2016-12-31T11:00:39.893Z,6620
2016-12-31T11:01:49.859Z,6648
2016-12-31T11:03:00.603Z,6672
2016-12-31T11:04:10.978Z,6684
2016-12-31T11:05:21.734Z,6712
2016-12-31T11:06:31.706Z,6728
2016-12-31T11:07:42.054Z,6740
2016-12-31T11:08:52.835Z,6776
2016-12-31T11:10:03.186Z,6800
2016-12-31T11:11:13.942Z,6824
2016-12-31T11:12:24.293Z,6844
2016-12-31T11:13:35.041Z,6864
2016-12-31T11:14:45.398Z,6904
2016-12-31T11:15:55.784Z,6920
2016-12-31T11:17:06.126Z,6944
2016-12-31T11:18:16.874Z,6960
2016-12-31T11:19:27.650Z,6976
2016-12-31T11:20:38.232Z,6992
2016-12-31T11:21:48.979Z,6996
2016-12-31T11:22:59.730Z,7000
2016-12-31T11:24:10.096Z,7020
2016-12-31T11:25:20.823Z,7036
2016-12-31T11:26:31.576Z,7064
2016-12-31T11:27:41.926Z,7100
2016-12-31T11:28:52.689Z,7120
2016-12-31T11:30:02.654Z,7140
2016-12-31T11:31:13.406Z,7216
2016-12-31T11:32:24.183Z,7220
2016-12-31T11:33:34.571Z,7216
2016-12-31T11:34:44.957Z,7188
2016-12-31T11:35:55.308Z,7156
2016-12-31T11:37:06.064Z,7140
2016-12-31T11:38:16.413Z,7112
2016-12-31T11:39:27.163Z,7104
2016-12-31T11:40:37.528Z,7116
2016-12-31T11:41:47.891Z,7096
2016-12-31T11:42:58.247Z,7100
2016-12-31T11:44:09.000Z,7092
2016-12-31T11:45:19.345Z,7072
2016-12-31T11:46:30.104Z,7048
2016-12-31T11:47:40.853Z,7064
2016-12-31T11:48:51.590Z,7068
2016-12-31T11:50:02.367Z,7088
2016-12-31T11:51:13.113Z,7072
2016-12-31T11:52:23.467Z,7080
2016-12-31T11:53:34.232Z,7076
2016-12-31T11:54:44.977Z,7088
2016-12-31T11:55:55.739Z,7080
2016-12-31T11:57:06.487Z,7072
2016-12-31T11:58:17.230Z,7048
2016-12-31T11:59:27.976Z,7052
2016-12-31T12:00:38.352Z,7036
2016-12-31T12:01:48.704Z,7044
2016-12-31T12:02:59.475Z,7016
2016-12-31T12:04:09.432Z,6996
2016-12-31T12:05:19.810Z,6992
2016-12-31T12:06:30.562Z,7000
2016-12-31T12:07:41.312Z,7004
2016-12-31T12:08:51.264Z,7016
2016-12-31T12:10:01.632Z,7036
2016-12-31T12:11:12.369Z,7028
2016-12-31T12:12:23.114Z,7052
2016-12-31T12:13:33.881Z,7088
2016-12-31T12:14:44.628Z,7108
2016-12-31T12:15:54.980Z,7124
2016-12-31T12:17:05.737Z,7152
2016-12-31T12:18:16.086Z,7148
2016-12-31T12:19:26.825Z,7168
2016-12-31T12:20:37.590Z,7192
2016-12-31T12:21:48.333Z,7220
2016-12-31T12:22:59.099Z,7244
2016-12-31T12:24:09.875Z,7296
2016-12-31T12:25:20.603Z,7336
2016-12-31T12:26:31.343Z,7360
2016-12-31T12:27:42.198Z,7396
2016-12-31T12:28:52.952Z,7400
2016-12-31T12:30:03.697Z,7420
2016-12-31T12:31:14.057Z,7476
2016-12-31T12:32:24.019Z,7512
2016-12-31T12:33:34.778Z,7496
2016-12-31T12:34:45.547Z,7504
2016-12-31T12:35:56.293Z,7496
2016-12-31T12:37:07.041Z,7508
2016-12-31T12:38:16.982Z,7456
2016-12-31T12:39:26.943Z,7436
2016-12-31T12:40:37.680Z,7416
2016-12-31T12:41:48.460Z,7360
2016-12-31T12:42:58.013Z,7300
2016-12-31T12:44:08.364Z,7248
2016-12-31T12:45:18.717Z,7204
2016-12-31T12:46:28.712Z,7184
2016-12-31T12:47:39.066Z,7164
2016-12-31T12:48:49.813Z,7156
2016-12-31T12:50:00.554Z,7116
2016-12-31T12:51:10.520Z,7088
2016-12-31T12:52:21.266Z,7064
2016-12-31T12:53:32.015Z,6988
2016-12-31T12:54:42.775Z,6956
2016-12-31T12:55:52.732Z,6896
2016-12-31T12:57:03.078Z,6852
2016-12-31T12:58:13.826Z,6740
2016-12-31T12:59:23.401Z,6680
2016-12-31T13:00:33.365Z,6584
2016-12-31T13:01:44.127Z,6516
2016-12-31T13:02:54.912Z,6424
2016-12-31T13:04:05.663Z,6356
2016-12-31T13:05:16.026Z,6244
2016-12-31T13:06:26.383Z,6136
2016-12-31T13:07:36.774Z,6036
2016-12-31T13:08:46.721Z,5948
2016-12-31T13:09:57.473Z,5860
2016-12-31T13:11:08.229Z,5760
2016-12-31T13:12:18.575Z,5676
2016-12-31T13:13:28.933Z,5596
2016-12-31T13:14:39.283Z,5520
2016-12-31T13:15:49.271Z,5440
2016-12-31T13:16:59.630Z,5372
2016-12-31T13:18:10.419Z,5308
2016-12-31T13:19:21.171Z,5240
2016-12-31T13:20:31.533Z,5172
2016-12-31T13:21:41.885Z,5136
2016-12-31T13:22:51.836Z,5072
2016-12-31T13:24:02.597Z,5016
2016-12-31T13:25:12.963Z,4944
2016-12-31T13:26:23.706Z,4892
2016-12-31T13:27:33.281Z,4836
2016-12-31T13:28:44.028Z,4784
2016-12-31T13:29:54.820Z,4728
2016-12-31T13:31:05.574Z,4672
2016-12-31T13:32:15.914Z,4616
2016-12-31T13:33:26.280Z,4556
2016-12-31T13:34:36.251Z,4516
2016-12-31T13:35:46.207Z,4460
2016-12-31T13:36:56.554Z,4404
2016-12-31T13:38:07.286Z,4344
2016-12-31T13:39:17.645Z,4296
2016-12-31T13:40:28.016Z,4240
2016-12-31T13:41:38.787Z,4172
2016-12-31T13:42:49.535Z,4108
2016-12-31T13:43:59.891Z,4044
2016-12-31T13:45:10.643Z,3996
2016-12-31T13:46:21.008Z,3944
2016-12-31T13:47:31.387Z,3884
2016-12-31T13:48:42.152Z,3824
2016-12-31T13:49:52.512Z,3772
2016-12-31T13:51:02.511Z,3720
2016-12-31T13:52:12.868Z,3668
2016-12-31T13:53:23.206Z,3604
2016-12-31T13:54:33.945Z,3540
2016-12-31T13:55:44.703Z,3480
2016-12-31T13:56:55.065Z,3420
2016-12-31T13:58:05.835Z,3368
2016-12-31T13:59:16.842Z,3296
2016-12-31T14:00:27.595Z,3244
2016-12-31T14:01:38.356Z,3192
2016-12-31T14:02:48.337Z,3120
2016-12-31T14:03:59.078Z,3068
2016-12-31T14:05:09.440Z,3004
2016-12-31T14:06:19.797Z,2936
2016-12-31T14:07:30.146Z,2860
2016-12-31T14:08:40.503Z,2776
2016-12-31T14:09:51.256Z,2680
2016-12-31T14:11:01.220Z,2588
2016-12-31T14:12:11.176Z,2504
2016-12-31T14:13:21.935Z,2416
2016-12-31T14:14:32.694Z,2312
2016-12-31T14:15:43.456Z,2244
2016-12-31T14:16:53.034Z,2160
2016-12-31T14:18:03.822Z,2060
2016-12-31T14:19:14.796Z,1980
2016-12-31T14:20:24.760Z,1896
2016-12-31T14:21:35.516Z,1804
2016-12-31T14:22:45.877Z,1700
2016-12-31T14:23:55.827Z,1600
2016-12-31T14:25:05.785Z,1512
2016-12-31T14:26:16.152Z,1428
2016-12-31T14:27:26.913Z,1352
2016-12-31T14:28:37.259Z,1280
2016-12-31T14:29:47.617Z,1220
2016-12-31T14:30:57.974Z,1164
2016-12-31T14:32:08.354Z,1112
2016-12-31T14:33:19.133Z,1064
2016-12-31T14:34:29.498Z,1020
2016-12-31T14:35:40.255Z,976
2016-12-31T14:36:50.997Z,940
2016-12-31T14:38:01.353Z,900
2016-12-31T14:39:12.102Z,864
2016-12-31T14:40:22.872Z,828
2016-12-31T14:41:33.227Z,796
2016-12-31T14:42:44.000Z,768
2016-12-31T14:43:54.357Z,744
2016-12-31T14:45:04.314Z,720
2016-12-31T14:46:14.660Z,692
2016-12-31T14:47:25.397Z,664
2016-12-31T14:48:36.188Z,636
2016-12-31T14:49:46.561Z,608
2016-12-31T14:50:56.949Z,584
2016-12-31T14:52:07.701Z,556
2016-12-31T14:53:17.667Z,528
2016-12-31T14:54:28.412Z,500
2016-12-31T14:55:39.167Z,476
2016-12-31T14:56:49.145Z,448
2016-12-31T14:57:59.507Z,424
2016-12-31T14:59:10.262Z,396
2016-12-31T15:00:21.018Z,368
2016-12-31T15:01:31.780Z,344
2016-12-31T15:02:42.136Z,316
2016-12-31T15:03:52.899Z,296
2016-12-31T15:05:03.648Z,272
2016-12-31T15:06:14.403Z,252
2016-12-31T15:07:24.794Z,232
2016-12-31T15:08:35.560Z,212
2016-12-31T15:09:45.536Z,188
2016-12-31T15:10:56.298Z,172
2016-12-31T15:12:06.674Z,152
2016-12-31T15:13:17.432Z,140
2016-12-31T15:14:28.200Z,124
2016-12-31T15:15:38.954Z,108
2016-12-31T15:16:49.762Z,96
2016-12-31T15:18:00.128Z,84
2016-12-31T15:19:10.894Z,76
2016-12-31T15:20:21.269Z,64
2016-12-31T15:21:31.638Z,52
2016-12-31T15:22:41.604Z,48
2016-12-31T15:23:51.959Z,40
2016-12-31T15:25:02.312Z,32
2016-12-31T15:26:13.058Z,28
2016-12-31T15:27:23.821Z,24
2016-12-31T15:28:34.552Z,20
2016-12-31T15:29:44.503Z,16
2016-12-31T15:30:54.860Z,12
2016-12-31T15:32:05.206Z,12
2016-12-31T15:33:15.973Z,12
2016-12-31T15:34:25.546Z,8
2016-12-31T15:35:35.509Z,8
2016-12-31T15:36:45.858Z,4
2016-12-31T15:37:56.210Z,4
2016-12-31T15:39:06.582Z,4
2016-12-31T15:40:17.323Z,4
2016-12-31T15:41:28.069Z,4
2016-12-31T15:42:38.429Z,4
2016-12-31T15:43:49.183Z,0
2016-12-31T15:44:59.927Z,0
2016-12-31T15:46:10.283Z,4
2016-12-31T15:47:21.030Z,4
2016-12-31T15:48:31.787Z,4
2016-12-31T15:49:42.156Z,0
2016-12-31T15:50:52.898Z,0
2016-12-31T15:52:03.250Z,0
2016-12-31T15:53:13.620Z,0
2016-12-31T15:54:24.368Z,0
2016-12-31T15:55:35.124Z,0
2016-12-31T15:56:45.485Z,0
2016-12-31T15:57:55.440Z,0
2016-12-31T15:59:05.779Z,0
2016-12-31T16:00:16.535Z,0
2016-12-31T16:01:27.285Z,0
2016-12-31T16:02:37.636Z,0
2016-12-31T16:03:48.398Z,0
2016-12-31T16:04:58.763Z,0
2016-12-31T16:06:09.508Z,0
2016-12-31T16:07:19.085Z,0
2016-12-31T16:08:29.448Z,0
2016-12-31T16:09:39.793Z,0
2016-12-31T16:10:50.536Z,0
2016-12-31T16:12:00.866Z,0
2016-12-31T16:13:11.234Z,0
2016-12-31T16:14:21.587Z,0
2016-12-31T16:15:32.332Z,0
2016-12-31T16:16:43.073Z,0
2016-12-31T16:17:53.435Z,0
2016-12-31T16:19:03.414Z,0
2016-12-31T16:20:14.172Z,0
2016-12-31T16:21:24.533Z,0
2016-12-31T16:22:35.285Z,0
2016-12-31T16:23:46.033Z,0
2016-12-31T16:24:56.378Z,0
2016-12-31T16:26:07.144Z,0
2016-12-31T16:27:17.499Z,0
2016-12-31T16:28:28.274Z,0
2016-12-31T16:29:39.005Z,0
2016-12-31T16:30:49.775Z,0
2016-12-31T16:32:00.115Z,0
2016-12-31T16:33:10.896Z,0
2016-12-31T16:34:21.651Z,0
2016-12-31T16:35:31.997Z,0
2016-12-31T16:36:42.355Z,0
2016-12-31T16:37:52.712Z,0
2016-12-31T16:39:02.277Z,0
2016-12-31T16:40:12.615Z,0
2016-12-31T16:41:23.406Z,0
2016-12-31T16:42:33.751Z,0
2016-12-31T16:43:44.517Z,0
2016-12-31T16:44:55.300Z,0
2016-12-31T16:46:05.239Z,0
2016-12-31T16:47:15.984Z,0
2016-12-31T16:48:26.714Z,0
2016-12-31T16:49:37.465Z,0
2016-12-31T16:50:48.216Z,0
2016-12-31T16:51:58.987Z,0
2016-12-31T16:53:09.331Z,0
2016-12-31T16:54:19.674Z,0
2016-12-31T16:55:30.423Z,0
2016-12-31T16:56:40.769Z,0